Samtredia, Georgia

9:02 PM GET on September 02, 2015 (GMT +0400)
Kutaisi Kopitnari Airport | | Change Station
CLOSE
Current Station
Airport
Location: Kutaisi Kopitnari Airport,
Elevation: 223 ft
Nearby Weather Stations

Elev 223 ft 42.18 °N, 42.48 °E | Updated 32 minutes ago

Clear
Clear
75 °F
Feels Like 75 °F
N
10
Wind Variable Wind from WSW

Today
High -- | Low -- °F
--% Chance of Precip.
Yesterday
High -- | Low -- °F
Precip. -- in
6:36 AM 7:43 PM
Waning Gibbous, 79% visible
Pressure 29.89 in
Visibility -9999.0 miles
Clouds
Dew Point 68 °F
Humidity 78%
Rainfall 0.00 in
Snow Depth Not available.
UV Not available.
Pollen Not available.
Air Quality Not available.
Flu Activity Not available.
METAR UGKO 021630Z 25009KT CAVOK 24/20 Q1012 R07/09//70 NOSIG
Pressure 29.89 in
Visibility -9999.0 miles
Clouds
Dew Point 68 °F
Humidity 78%
Rainfall 0.00 in
Snow Depth Not available.
UV Not available.
Pollen Not available.
Air Quality Not available.
Flu Activity Not available.
METAR UGKO 021630Z 25009KT CAVOK 24/20 Q1012 R07/09//70 NOSIG

10-Day Weather Forecast

×

Almanac

Astronomy

Sep. 02, 2015 Rise Set
Actual Time
Civil Twilight
Nautical Twilight
Astronomical Twilight
Moon
Length of Visible Light
Length of Day
Tomorrow will be .
, % of the Moon is Illuminated

Today's Extremes

Country Highs Country Lows

Community

WunderPhotos

Upload Photos

1,851,785 photos uploaded!

WunderBlogs® & News

Nearby

Air Quality

  Air Quality AQ Index Pollutant
Not available.

Snow Depth

Station Depth Elevation

Earthquake Activity

City Distance Mag. Time & Date
Minimum magnitude displayed is 2.5.

Coastal Water Temperatures

Place Temperature

Stations

Nearby Weather Stations

Station Location Temp. Windchill Dew Point Humidity Wind Precip. Elev Updated Type